Time;durP1;ratioP1;P1;durP2;ratioP2;P2;SDS_P1;SDS_P2;PMS_P1;PMS_P2;Temp;Humidity;BMP_temperature;BMP_pressure;BME280_temperature;BME280_humidity;BME280_pressure;Samples;Min_cycle;Max_cycle;Signal;HPM_P1;HPM_P2
2022/11/05 00:10:26;;;;;;;10.80;8.67;;;;;;;;;;1728680;80;21089;-48
2022/11/05 00:18:21;;;;;;;10.60;8.33;;;;;;;;;;1734813;80;21223;-48
2022/11/05 00:20:47;;;;;;;8.50;7.47;;;;;;;;;;1727080;80;21010;-48
2022/11/05 00:26:00;;;;;;;9.55;7.22;;;;;;;;;;1729949;80;21018;-48
2022/11/05 00:28:27;;;;;;;8.33;7.50;;;;;;;;;;1738182;80;22391;-48
2022/11/05 00:30:53;;;;;;;12.50;7.70;;;;;;;;;;1735090;80;21014;-48
2022/11/05 00:33:21;;;;;;;10.47;8.03;;;;;;;;;;1731408;80;20967;-48
2022/11/05 00:35:47;;;;;;;9.47;6.90;;;;;;;;;;1734154;80;20974;-48
2022/11/05 00:38:13;;;;;;;9.13;8.03;;;;;;;;;;1728562;80;21132;-48
2022/11/05 00:40:39;;;;;;;11.23;7.90;;;;;;;;;;1729596;80;21321;-47
2022/11/05 00:45:50;;;;;;;;;;;;;;;;;;1734556;80;20959;-48
2022/11/05 00:51:01;;;;;;;17.98;11.00;;;;;;;;;;1731649;80;21029;-48
2022/11/05 00:53:27;;;;;;;30.30;16.57;;;;;;;;;;1733960;80;21467;-48
2022/11/05 00:55:53;;;;;;;17.80;13.37;;;;;;;;;;1725003;80;21608;-48
2022/11/05 00:58:20;;;;;;;26.07;13.60;;;;;;;;;;1730965;80;21038;-48
2022/11/05 01:00:49;;;;;;;28.07;15.97;;;;;;;;;;1724205;80;21383;-48
2022/11/05 01:03:16;;;;;;;28.83;15.23;;;;;;;;;;1730484;80;21039;-47
2022/11/05 01:05:45;;;;;;;22.20;15.30;;;;;;;;;;1724202;80;21824;-48
2022/11/05 01:08:12;;;;;;;20.47;14.27;;;;;;;;;;1727799;80;21544;-47
2022/11/05 01:10:41;;;;;;;21.40;12.87;;;;;;;;;;1728870;80;21463;-47
2022/11/05 01:13:07;;;;;;;18.33;12.47;;;;;;;;;;1727389;80;21091;-47
2022/11/05 01:15:35;;;;;;;21.83;14.10;;;;;;;;;;1730973;80;21029;-47
2022/11/05 01:18:01;;;;;;;18.27;14.07;;;;;;;;;;1739393;80;21838;-47
2022/11/05 01:20:28;;;;;;;16.80;13.77;;;;;;;;;;1731694;80;21042;-47
2022/11/05 01:22:55;;;;;;;18.20;13.73;;;;;;;;;;1742499;80;21012;-47
2022/11/05 01:25:21;;;;;;;18.83;13.60;;;;;;;;;;1702195;80;21065;-47
2022/11/05 01:27:48;;;;;;;19.60;13.97;;;;;;;;;;1739314;80;21242;-47
2022/11/05 01:30:16;;;;;;;15.47;13.37;;;;;;;;;;1737201;80;21021;-47
2022/11/05 01:32:42;;;;;;;16.47;12.07;;;;;;;;;;1727582;80;21057;-47
2022/11/05 01:35:10;;;;;;;16.10;11.60;;;;;;;;;;1725215;81;21544;-47
2022/11/05 01:37:38;;;;;;;19.30;13.03;;;;;;;;;;1692712;81;21495;-47
2022/11/05 01:40:07;;;;;;;14.80;11.40;;;;;;;;;;1727081;81;21093;-47
2022/11/05 01:42:33;;;;;;;18.53;12.70;;;;;;;;;;1720425;81;21889;-47
2022/11/05 01:45:12;;;;;;;14.30;11.73;;;;;;;;;;1719527;81;21359;-47
2022/11/05 01:48:02;;;;;;;17.70;12.93;;;;;;;;;;1723163;81;21082;-47
2022/11/05 01:50:47;;;;;;;17.23;13.07;;;;;;;;;;1715405;81;21108;-46
2022/11/05 01:53:15;;;;;;;;;;;;;;;;;;1713853;81;21479;-48
2022/11/05 01:56:02;;;;;;;17.77;10.97;;;;;;;;;;1726715;81;21876;-45
2022/11/05 01:58:32;;;;;;;16.70;11.23;;;;;;;;;;1722291;81;21098;-49
2022/11/05 02:00:58;;;;;;;22.03;13.33;;;;;;;;;;1716287;81;21070;-44
2022/11/05 02:03:25;;;;;;;33.33;13.77;;;;;;;;;;1718160;81;21614;-46
2022/11/05 02:05:51;;;;;;;28.77;14.27;;;;;;;;;;1726321;81;21055;-45
2022/11/05 02:08:28;;;;;;;22.47;12.67;;;;;;;;;;1722526;81;21936;-47
2022/11/05 02:10:54;;;;;;;17.10;11.83;;;;;;;;;;1716319;81;21225;-45
2022/11/05 02:13:20;;;;;;;23.13;12.70;;;;;;;;;;1714556;81;21588;-45
2022/11/05 02:16:05;;;;;;;18.83;10.43;;;;;;;;;;1713818;81;21030;-46
2022/11/05 02:18:59;;;;;;;13.07;10.23;;;;;;;;;;1712180;81;21078;-45
2022/11/05 02:21:41;;;;;;;19.07;11.83;;;;;;;;;;1715210;81;21819;-48
2022/11/05 02:24:14;;;;;;;21.67;10.43;;;;;;;;;;1718780;81;21073;-47
2022/11/05 02:27:18;;;;;;;19.37;10.93;;;;;;;;;;1722664;81;21026;-49
2022/11/05 02:29:57;;;;;;;21.73;13.40;;;;;;;;;;1720496;81;21031;-47
2022/11/05 02:32:43;;;;;;;20.33;11.83;;;;;;;;;;1721862;81;21547;-48
2022/11/05 02:35:19;;;;;;;16.27;11.03;;;;;;;;;;1728646;80;21763;-45
2022/11/05 02:37:51;;;;;;;19.48;11.70;;;;;;;;;;1727600;80;21106;-45
2022/11/05 02:40:30;;;;;;;13.13;9.63;;;;;;;;;;1722644;80;21065;-46
2022/11/05 02:43:14;;;;;;;20.50;9.80;;;;;;;;;;1738817;80;21038;-48
2022/11/05 02:45:56;;;;;;;11.47;10.00;;;;;;;;;;1728542;80;21041;-47
2022/11/05 02:48:37;;;;;;;19.40;10.33;;;;;;;;;;1724574;80;23272;-47
2022/11/05 02:51:22;;;;;;;20.67;9.10;;;;;;;;;;1733021;80;21045;-48
2022/11/05 02:53:58;;;;;;;8.35;7.53;;;;;;;;;;1725998;80;21045;-47
2022/11/05 02:56:27;;;;;;;14.80;9.10;;;;;;;;;;1730697;80;21464;-49
2022/11/05 02:58:54;;;;;;;13.17;7.43;;;;;;;;;;1728918;80;21095;-49
2022/11/05 03:01:20;;;;;;;11.93;6.83;;;;;;;;;;1744664;80;22695;-50
2022/11/05 03:03:52;;;;;;;12.30;5.97;;;;;;;;;;1731150;80;21108;-49
2022/11/05 03:06:49;;;;;;;6.20;5.70;;;;;;;;;;1730856;80;20953;-48
2022/11/05 03:09:54;;;;;;;10.37;6.17;;;;;;;;;;1734762;80;20977;-50
2022/11/05 03:12:40;;;;;;;7.05;6.28;;;;;;;;;;1738731;80;21439;-48
2022/11/05 03:15:13;;;;;;;12.07;5.80;;;;;;;;;;1728191;80;21799;-48
2022/11/05 03:17:54;;;;;;;6.33;5.72;;;;;;;;;;1745413;80;21065;-48
2022/11/05 03:20:23;;;;;;;11.27;5.73;;;;;;;;;;1649758;86;21081;-49
2022/11/05 03:23:04;;;;;;;6.03;5.47;;;;;;;;;;1731586;80;21218;-50
2022/11/05 03:25:31;;;;;;;4.47;3.57;;;;;;;;;;1734341;80;20987;-48
2022/11/05 03:27:59;;;;;;;9.68;4.65;;;;;;;;;;1730696;80;21939;-48
2022/11/05 03:30:25;;;;;;;6.83;5.63;;;;;;;;;;1732313;80;21014;-49
2022/11/05 03:32:55;;;;;;;6.23;5.27;;;;;;;;;;1729548;80;21011;-47
2022/11/05 03:35:26;;;;;;;6.00;4.13;;;;;;;;;;1729105;80;21074;-49
2022/11/05 03:37:55;;;;;;;4.20;3.40;;;;;;;;;;1728316;80;20997;-47
2022/11/05 03:40:22;;;;;;;4.40;4.07;;;;;;;;;;1734059;80;22291;-47
2022/11/05 03:42:50;;;;;;;5.47;5.07;;;;;;;;;;1731073;80;21026;-47
2022/11/05 03:45:21;;;;;;;8.37;3.93;;;;;;;;;;1728465;80;21006;-47
2022/11/05 03:47:49;;;;;;;8.87;4.03;;;;;;;;;;1740366;80;20962;-47
2022/11/05 03:50:39;;;;;;;3.00;2.80;;;;;;;;;;1731999;80;21034;-47
2022/11/05 03:53:12;;;;;;;5.20;3.90;;;;;;;;;;1733567;80;21821;-49
2022/11/05 03:55:49;;;;;;;6.95;3.17;;;;;;;;;;1724800;80;21367;-49
2022/11/05 03:58:15;;;;;;;8.80;4.23;;;;;;;;;;1732002;80;21645;-48
2022/11/05 04:00:42;;;;;;;6.73;4.40;;;;;;;;;;1730949;80;21092;-48
2022/11/05 04:03:08;;;;;;;14.77;3.00;;;;;;;;;;1728159;80;21118;-48
2022/11/05 04:05:35;;;;;;;3.80;3.40;;;;;;;;;;1732500;80;21828;-49
2022/11/05 04:13:32;;;;;;;4.40;3.20;;;;;;;;;;1735400;80;21058;-48
2022/11/05 04:18:43;;;;;;;3.70;2.45;;;;;;;;;;1731030;80;26095;-49
2022/11/05 04:24:09;;;;;;;;;;;;;;;;;;1732466;80;21029;-49
2022/11/05 04:26:38;;;;;;;3.03;2.80;;;;;;;;;;1729044;80;20255;-48
2022/11/05 04:31:50;;;;;;;4.47;2.97;;;;;;;;;;1731636;80;21982;-49
2022/11/05 04:34:17;;;;;;;7.20;2.60;;;;;;;;;;1726523;80;21136;-49
2022/11/05 04:36:50;;;;;;;2.47;2.27;;;;;;;;;;1728259;80;21025;-49
2022/11/05 04:39:17;;;;;;;2.90;2.70;;;;;;;;;;1729522;80;21057;-49
2022/11/05 04:41:48;;;;;;;4.53;2.77;;;;;;;;;;1730820;80;21050;-49
2022/11/05 04:44:15;;;;;;;4.37;1.70;;;;;;;;;;1721780;80;21827;-48
2022/11/05 04:46:41;;;;;;;1.60;1.50;;;;;;;;;;1726273;80;21084;-49
2022/11/05 04:49:07;;;;;;;6.00;1.87;;;;;;;;;;1727892;80;21025;-48
2022/11/05 04:51:35;;;;;;;7.93;1.90;;;;;;;;;;1741795;80;21606;-48
2022/11/05 04:54:01;;;;;;;4.03;2.57;;;;;;;;;;1733283;80;21054;-48
2022/11/05 04:56:29;;;;;;;2.23;2.03;;;;;;;;;;1724691;80;21062;-48
2022/11/05 04:58:55;;;;;;;2.90;2.43;;;;;;;;;;1732033;80;21077;-48
2022/11/05 05:01:21;;;;;;;3.73;2.27;;;;;;;;;;1729242;80;21073;-49
2022/11/05 05:03:48;;;;;;;3.00;2.73;;;;;;;;;;1737987;80;21519;-49
2022/11/05 05:06:15;;;;;;;3.10;2.03;;;;;;;;;;1718912;80;21486;-49
2022/11/05 05:08:41;;;;;;;4.17;3.17;;;;;;;;;;1730548;80;21890;-49
2022/11/05 05:11:12;;;;;;;2.90;2.40;;;;;;;;;;1729409;80;21093;-49
2022/11/05 05:13:38;;;;;;;3.30;3.00;;;;;;;;;;1731951;80;21045;-49
2022/11/05 05:16:08;;;;;;;5.10;3.27;;;;;;;;;;1727419;80;21451;-49
2022/11/05 05:18:34;;;;;;;9.20;3.93;;;;;;;;;;1732374;80;21518;-48
2022/11/05 05:23:47;;;;;;;4.43;4.13;;;;;;;;;;1731583;80;21587;-48
2022/11/05 05:26:14;;;;;;;5.57;3.97;;;;;;;;;;1728740;80;21033;-49
2022/11/05 05:28:41;;;;;;;4.60;3.87;;;;;;;;;;1726453;80;21025;-48
2022/11/05 05:31:08;;;;;;;7.90;4.50;;;;;;;;;;1729027;80;21053;-49
2022/11/05 05:33:35;;;;;;;3.83;3.53;;;;;;;;;;1731842;80;21025;-49
2022/11/05 05:36:02;;;;;;;4.87;4.47;;;;;;;;;;1719131;80;21045;-48
2022/11/05 05:38:28;;;;;;;5.47;4.07;;;;;;;;;;1710582;81;21038;-49
2022/11/05 05:40:58;;;;;;;4.10;3.80;;;;;;;;;;1730202;81;21037;-48
2022/11/05 05:43:26;;;;;;;4.70;4.30;;;;;;;;;;1716244;81;21475;-49
2022/11/05 05:45:53;;;;;;;7.27;3.93;;;;;;;;;;1716933;81;22959;-49
2022/11/05 05:50:44;;;;;;;9.10;4.77;;;;;;;;;;1773874;78;22593;-48
2022/11/05 05:53:10;;;;;;;4.67;4.23;;;;;;;;;;1742255;80;21042;-48
2022/11/05 05:55:36;;;;;;;5.43;4.10;;;;;;;;;;1729635;80;21787;-47
2022/11/05 05:58:02;;;;;;;4.47;4.17;;;;;;;;;;1711899;81;21061;-48
2022/11/05 06:00:29;;;;;;;6.08;4.62;;;;;;;;;;1721046;81;21052;-48
2022/11/05 06:02:56;;;;;;;7.03;5.67;;;;;;;;;;1708512;81;21064;-48
2022/11/05 06:05:22;;;;;;;6.87;4.40;;;;;;;;;;1720397;81;21140;-48
2022/11/05 06:07:55;;;;;;;4.00;3.70;;;;;;;;;;1713474;81;21069;-48
2022/11/05 06:10:23;;;;;;;6.62;5.25;;;;;;;;;;1713500;81;21070;-49
2022/11/05 06:12:50;;;;;;;9.30;8.35;;;;;;;;;;1710397;81;21038;-49
2022/11/05 06:15:17;;;;;;;20.35;13.58;;;;;;;;;;1716565;81;21097;-49
2022/11/05 06:17:43;;;;;;;33.93;19.93;;;;;;;;;;1714111;81;21053;-48
2022/11/05 06:20:11;;;;;;;13.67;9.43;;;;;;;;;;1718620;81;21924;-48
2022/11/05 06:22:37;;;;;;;21.23;14.03;;;;;;;;;;1720005;81;21809;-49
2022/11/05 06:25:05;;;;;;;28.98;16.17;;;;;;;;;;1712237;81;21714;-49
2022/11/05 06:30:22;;;;;;;9.37;7.53;;;;;;;;;;1787944;77;22607;-48
2022/11/05 06:32:48;;;;;;;12.80;8.63;;;;;;;;;;1763773;79;21004;-48
2022/11/05 06:35:15;;;;;;;11.13;8.43;;;;;;;;;;1762660;79;21821;-47
2022/11/05 06:37:41;;;;;;;12.60;10.75;;;;;;;;;;1767342;79;20989;-48
2022/11/05 06:40:07;;;;;;;9.40;7.55;;;;;;;;;;1773121;79;20961;-47
2022/11/05 06:42:33;;;;;;;11.20;9.15;;;;;;;;;;1769791;79;20985;-48
2022/11/05 06:45:01;;;;;;;8.08;7.37;;;;;;;;;;1768606;79;21080;-48
2022/11/05 06:47:27;;;;;;;11.10;10.00;;;;;;;;;;1770688;79;21850;-47
2022/11/05 06:49:53;;;;;;;8.68;7.72;;;;;;;;;;1778041;79;21044;-48
2022/11/05 06:52:20;;;;;;;6.95;6.40;;;;;;;;;;1768586;79;21076;-47
2022/11/05 06:54:46;;;;;;;6.45;5.75;;;;;;;;;;1756675;79;21074;-47
2022/11/05 06:57:12;;;;;;;5.85;5.20;;;;;;;;;;1735158;81;21515;-47
2022/11/05 06:59:39;;;;;;;6.87;4.58;;;;;;;;;;1734394;81;21834;-48
2022/11/05 07:02:05;;;;;;;5.35;4.90;;;;;;;;;;1681473;83;21065;-48
2022/11/05 07:04:32;;;;;;;10.28;8.70;;;;;;;;;;1707413;82;21148;-48
2022/11/05 07:06:59;;;;;;;6.83;6.10;;;;;;;;;;1693517;83;22548;-48
2022/11/05 07:09:26;;;;;;;5.83;5.33;;;;;;;;;;1697288;82;21109;-47
2022/11/05 07:11:53;;;;;;;6.40;5.90;;;;;;;;;;1678335;84;21860;-48
2022/11/05 07:14:20;;;;;;;5.37;4.92;;;;;;;;;;1682111;84;21077;-48
2022/11/05 07:16:47;;;;;;;5.58;4.58;;;;;;;;;;1673143;84;21571;-47
2022/11/05 07:19:13;;;;;;;3.75;3.55;;;;;;;;;;1674885;84;21610;-48
2022/11/05 07:21:41;;;;;;;9.85;5.28;;;;;;;;;;1687395;83;21590;-49
2022/11/05 07:24:07;;;;;;;4.65;4.12;;;;;;;;;;1679016;84;21852;-48
2022/11/05 07:26:33;;;;;;;6.85;5.10;;;;;;;;;;1675912;84;21115;-47
2022/11/05 07:29:00;;;;;;;4.85;4.55;;;;;;;;;;1676622;84;21094;-48
2022/11/05 07:31:26;;;;;;;6.90;6.35;;;;;;;;;;1718528;82;21540;-47
2022/11/05 07:33:53;;;;;;;5.08;4.67;;;;;;;;;;1720472;82;21583;-48
2022/11/05 07:36:20;;;;;;;4.20;3.87;;;;;;;;;;1730186;80;22013;-48
2022/11/05 07:38:46;;;;;;;4.28;3.98;;;;;;;;;;1724202;82;21081;-48
2022/11/05 07:41:12;;;;;;;4.85;4.55;;;;;;;;;;1716583;82;21129;-48
2022/11/05 07:43:39;;;;;;;6.67;6.05;;;;;;;;;;1726736;81;21127;-48
2022/11/05 07:46:05;;;;;;;6.90;6.03;;;;;;;;;;1726439;81;21057;-48
2022/11/05 07:48:31;;;;;;;6.62;5.85;;;;;;;;;;1718146;82;21831;-48
2022/11/05 07:50:58;;;;;;;9.78;7.85;;;;;;;;;;1723337;81;21362;-48
2022/11/05 07:53:24;;;;;;;10.93;8.23;;;;;;;;;;1720403;81;21532;-48
2022/11/05 07:55:51;;;;;;;5.62;4.83;;;;;;;;;;1717185;82;21046;-49
2022/11/05 07:58:17;;;;;;;6.17;5.47;;;;;;;;;;1724755;82;21416;-48
2022/11/05 08:00:43;;;;;;;7.95;6.53;;;;;;;;;;1724825;81;21838;-48
2022/11/05 08:03:14;;;;;;;6.75;5.47;;;;;;;;;;1726189;81;21079;-48
2022/11/05 08:05:43;;;;;;;13.80;11.95;;;;;;;;;;1719758;81;21109;-49
2022/11/05 08:08:10;;;;;;;12.07;8.63;;;;;;;;;;1714501;82;21046;-48
2022/11/05 08:10:36;;;;;;;14.68;13.05;;;;;;;;;;1725512;81;21030;-49
2022/11/05 08:13:05;;;;;;;26.30;18.23;;;;;;;;;;1718112;81;21113;-50
2022/11/05 08:15:31;;;;;;;17.00;13.45;;;;;;;;;;1716429;82;21045;-48
2022/11/05 08:17:58;;;;;;;8.58;5.53;;;;;;;;;;1715890;82;21042;-49
2022/11/05 08:20:25;;;;;;;6.87;4.20;;;;;;;;;;1720592;82;21511;-48
2022/11/05 08:22:53;;;;;;;4.15;3.85;;;;;;;;;;1718214;82;21007;-49
2022/11/05 08:25:19;;;;;;;7.75;4.10;;;;;;;;;;1717040;82;22723;-49
2022/11/05 08:27:45;;;;;;;8.98;6.78;;;;;;;;;;1718660;82;21312;-49
2022/11/05 08:30:12;;;;;;;6.25;5.70;;;;;;;;;;1722636;81;21507;-48
2022/11/05 08:32:38;;;;;;;6.65;5.40;;;;;;;;;;1722557;81;21442;-49
2022/11/05 08:35:05;;;;;;;5.97;5.40;;;;;;;;;;1716469;82;21113;-49
2022/11/05 08:37:33;;;;;;;7.03;5.33;;;;;;;;;;1721762;82;22526;-48
2022/11/05 08:39:59;;;;;;;5.35;4.28;;;;;;;;;;1719457;81;21500;-48
2022/11/05 08:42:25;;;;;;;11.45;10.25;;;;;;;;;;1720649;82;21047;-49
2022/11/05 08:44:51;;;;;;;33.98;21.42;;;;;;;;;;1719822;82;21101;-49
2022/11/05 08:47:17;;;;;;;31.02;20.55;;;;;;;;;;1721027;81;21046;-49
2022/11/05 08:49:43;;;;;;;20.55;14.47;;;;;;;;;;1726337;81;23920;-49
2022/11/05 08:52:10;;;;;;;11.68;9.83;;;;;;;;;;1721236;82;21047;-49
2022/11/05 08:54:36;;;;;;;11.97;9.55;;;;;;;;;;1687716;83;21070;-49
2022/11/05 08:57:03;;;;;;;17.62;11.95;;;;;;;;;;1722494;81;21473;-48
2022/11/05 08:59:30;;;;;;;11.75;10.13;;;;;;;;;;1724456;82;21010;-47
2022/11/05 09:01:57;;;;;;;8.98;8.08;;;;;;;;;;1730485;82;21851;-51
2022/11/05 09:04:24;;;;;;;16.80;12.58;;;;;;;;;;1718759;81;20999;-47
2022/11/05 09:06:50;;;;;;;13.93;10.85;;;;;;;;;;1728870;81;21480;-47
2022/11/05 09:09:16;;;;;;;17.92;11.85;;;;;;;;;;1717736;82;21681;-48
2022/11/05 09:11:42;;;;;;;18.45;11.22;;;;;;;;;;1721533;81;20995;-48
2022/11/05 09:14:10;;;;;;;13.18;9.73;;;;;;;;;;1721583;82;21859;-47
2022/11/05 09:16:36;;;;;;;14.15;10.70;;;;;;;;;;1718461;82;21019;-48
2022/11/05 09:19:03;;;;;;;14.45;10.35;;;;;;;;;;1727633;82;21039;-48
2022/11/05 09:21:30;;;;;;;36.17;18.82;;;;;;;;;;1726030;82;22523;-48
2022/11/05 09:23:56;;;;;;;15.53;11.60;;;;;;;;;;1724460;80;21027;-48
2022/11/05 09:26:22;;;;;;;29.25;20.95;;;;;;;;;;1725136;81;21917;-47
2022/11/05 09:28:48;;;;;;;21.50;15.98;;;;;;;;;;1724646;82;20995;-48
2022/11/05 09:31:15;;;;;;;17.98;14.47;;;;;;;;;;1717560;82;21014;-48
2022/11/05 09:33:41;;;;;;;20.02;14.43;;;;;;;;;;1734198;81;21425;-48
2022/11/05 09:36:08;;;;;;;18.40;14.75;;;;;;;;;;1723577;82;21069;-48
2022/11/05 09:38:35;;;;;;;46.68;28.57;;;;;;;;;;1720952;82;21168;-47
2022/11/05 09:41:11;;;;;;;29.70;21.42;;;;;;;;;;1717292;81;21134;-48
2022/11/05 09:43:41;;;;;;;54.98;35.40;;;;;;;;;;1710719;82;21046;-48
2022/11/05 09:46:13;;;;;;;17.82;13.60;;;;;;;;;;1720825;82;21090;-49
2022/11/05 09:48:40;;;;;;;32.03;19.05;;;;;;;;;;1719859;82;21390;-49
2022/11/05 09:51:06;;;;;;;15.80;11.88;;;;;;;;;;1723463;81;21775;-48
2022/11/05 09:53:34;;;;;;;15.93;13.13;;;;;;;;;;1723081;81;21030;-47
2022/11/05 09:56:01;;;;;;;38.33;23.00;;;;;;;;;;1718266;81;21042;-48
2022/11/05 09:58:38;;;;;;;15.98;11.93;;;;;;;;;;1724014;80;21054;-47
2022/11/05 10:01:08;;;;;;;11.60;9.40;;;;;;;;;;1715460;81;21082;-48
2022/11/05 10:03:34;;;;;;;13.83;11.65;;;;;;;;;;1717224;82;22461;-48
2022/11/05 10:06:06;;;;;;;15.55;11.50;;;;;;;;;;1719945;82;21737;-47
2022/11/05 10:08:35;;;;;;;12.88;10.85;;;;;;;;;;1714720;82;21034;-49
2022/11/05 10:11:07;;;;;;;13.78;11.68;;;;;;;;;;1717421;82;21531;-48
2022/11/05 10:13:37;;;;;;;11.48;10.38;;;;;;;;;;1722082;82;21402;-48
2022/11/05 10:16:23;;;;;;;13.13;11.68;;;;;;;;;;1700903;81;21911;-48
2022/11/05 10:19:08;;;;;;;12.20;10.70;;;;;;;;;;1717550;82;21071;-49
2022/11/05 10:21:36;;;;;;;16.90;13.32;;;;;;;;;;1715948;82;21141;-49
2022/11/05 10:24:14;;;;;;;24.70;17.95;;;;;;;;;;1715659;81;21077;-49
2022/11/05 10:27:53;;;;;;;33.10;22.13;;;;;;;;;;1771664;78;22644;-48
2022/11/05 10:30:21;;;;;;;19.77;16.42;;;;;;;;;;1745567;80;21080;-48
2022/11/05 10:32:48;;;;;;;16.52;13.05;;;;;;;;;;1736871;80;21844;-49
2022/11/05 10:35:17;;;;;;;20.88;14.83;;;;;;;;;;1744865;80;22366;-49
2022/11/05 10:37:45;;;;;;;16.45;13.35;;;;;;;;;;1736476;80;21108;-49
2022/11/05 10:40:35;;;;;;;16.87;12.70;;;;;;;;;;1729682;80;21089;-50
2022/11/05 10:43:16;;;;;;;14.40;12.85;;;;;;;;;;1735743;80;21088;-50
2022/11/05 10:45:55;;;;;;;20.35;16.95;;;;;;;;;;1743476;80;21773;-49
2022/11/05 10:48:38;;;;;;;27.60;22.20;;;;;;;;;;1736765;80;21310;-49
2022/11/05 10:51:06;;;;;;;17.37;15.32;;;;;;;;;;1745452;80;21480;-50
2022/11/05 10:53:40;;;;;;;21.15;15.55;;;;;;;;;;1736955;80;21073;-50
2022/11/05 10:56:33;;;;;;;18.73;14.55;;;;;;;;;;1732978;80;21049;-49
2022/11/05 10:59:01;;;;;;;13.60;12.20;;;;;;;;;;1728597;80;23470;-50
2022/11/05 11:01:29;;;;;;;13.90;12.30;;;;;;;;;;1728141;80;21505;-49
2022/11/05 11:04:14;;;;;;;15.08;12.50;;;;;;;;;;1723338;80;21030;-49
2022/11/05 11:06:42;;;;;;;;;;;;;;;;;;1733338;80;21089;-50
2022/11/05 11:09:12;;;;;;;16.90;14.20;;;;;;;;;;1737347;80;20229;-50
2022/11/05 11:11:40;;;;;;;16.80;13.80;;;;;;;;;;1739497;80;23124;-49
2022/11/05 11:14:14;;;;;;;17.32;13.18;;;;;;;;;;1735098;80;21048;-48
2022/11/05 11:16:43;;;;;;;20.48;15.23;;;;;;;;;;1731909;80;21037;-48
2022/11/05 11:19:24;;;;;;;15.18;12.73;;;;;;;;;;1733444;80;21061;-48
2022/11/05 11:22:06;;;;;;;17.62;14.50;;;;;;;;;;1723411;80;22337;-48
2022/11/05 11:24:39;;;;;;;19.82;16.20;;;;;;;;;;1727506;80;22207;-49
2022/11/05 11:27:10;;;;;;;22.98;15.95;;;;;;;;;;1721849;80;21110;-49
2022/11/05 11:29:38;;;;;;;21.12;16.85;;;;;;;;;;1714428;81;21073;-49
2022/11/05 11:32:09;;;;;;;26.80;17.55;;;;;;;;;;1683870;81;21038;-49
2022/11/05 11:34:37;;;;;;;23.62;16.90;;;;;;;;;;1712721;81;21086;-49
2022/11/05 11:37:09;;;;;;;23.67;16.00;;;;;;;;;;1716245;81;21953;-48
2022/11/05 11:39:36;;;;;;;20.20;15.13;;;;;;;;;;1722587;81;21041;-48
2022/11/05 11:42:06;;;;;;;22.90;16.65;;;;;;;;;;1724394;81;21014;-50
2022/11/05 11:44:35;;;;;;;21.65;16.50;;;;;;;;;;1718936;81;21026;-48
2022/11/05 11:47:04;;;;;;;21.68;15.45;;;;;;;;;;1698715;81;20992;-48
2022/11/05 11:49:54;;;;;;;31.57;21.42;;;;;;;;;;1725314;81;22784;-48
2022/11/05 11:52:26;;;;;;;23.38;14.90;;;;;;;;;;1715613;81;21042;-49
2022/11/05 11:54:53;;;;;;;23.02;17.25;;;;;;;;;;1724032;81;22108;-47
2022/11/05 11:57:26;;;;;;;20.30;15.40;;;;;;;;;;1705557;81;21654;-48
2022/11/05 11:59:53;;;;;;;20.25;14.15;;;;;;;;;;1722243;81;20991;-48
2022/11/05 12:02:52;;;;;;;21.40;13.68;;;;;;;;;;1719185;81;23642;-47
2022/11/05 12:05:38;;;;;;;21.27;14.45;;;;;;;;;;1725471;81;21030;-47
2022/11/05 12:08:11;;;;;;;23.90;17.05;;;;;;;;;;1720247;81;21538;-48
2022/11/05 12:11:03;;;;;;;15.48;11.88;;;;;;;;;;1720956;81;22261;-48
2022/11/05 12:13:40;;;;;;;17.52;12.55;;;;;;;;;;1714277;81;21032;-48
2022/11/05 12:16:26;;;;;;;15.53;12.30;;;;;;;;;;1714944;81;21302;-49
2022/11/05 12:19:18;;;;;;;16.93;11.88;;;;;;;;;;1719422;81;20996;-49
2022/11/05 12:22:06;;;;;;;19.37;13.10;;;;;;;;;;1715715;81;21470;-48
2022/11/05 12:24:42;;;;;;;19.02;12.58;;;;;;;;;;1716364;81;21089;-49
2022/11/05 12:27:30;;;;;;;19.07;12.65;;;;;;;;;;1728260;80;21279;-49
2022/11/05 12:30:06;;;;;;;19.37;13.55;;;;;;;;;;1729064;80;21788;-48
2022/11/05 12:32:57;;;;;;;15.45;12.68;;;;;;;;;;1735825;80;21030;-49
2022/11/05 12:35:40;;;;;;;19.60;12.73;;;;;;;;;;1719873;80;21068;-48
2022/11/05 12:38:16;;;;;;;18.15;13.68;;;;;;;;;;1724013;80;21057;-48
2022/11/05 12:40:56;;;;;;;15.20;11.22;;;;;;;;;;1734251;80;21052;-48
2022/11/05 12:43:45;;;;;;;18.95;15.32;;;;;;;;;;1728236;80;21852;-49
2022/11/05 12:46:21;;;;;;;21.85;13.72;;;;;;;;;;1735126;80;21029;-49
2022/11/05 12:49:07;;;;;;;13.38;10.95;;;;;;;;;;1728274;80;21037;-49
2022/11/05 12:51:50;;;;;;;15.68;11.50;;;;;;;;;;1722016;80;21625;-48
2022/11/05 12:54:52;;;;;;;18.60;12.70;;;;;;;;;;1725440;80;21622;-49
2022/11/05 12:57:18;;;;;;;15.13;11.30;;;;;;;;;;1724867;80;21903;-50
2022/11/05 13:00:05;;;;;;;18.90;14.20;;;;;;;;;;1712566;80;21053;-49
2022/11/05 13:02:42;;;;;;;13.15;11.70;;;;;;;;;;1728892;80;21681;-50
2022/11/05 13:05:39;;;;;;;20.17;13.70;;;;;;;;;;1707902;80;21061;-50
2022/11/05 13:08:23;;;;;;;15.20;12.00;;;;;;;;;;1726536;81;21097;-50
2022/11/05 13:10:56;;;;;;;17.57;13.32;;;;;;;;;;1733123;80;21814;-49
2022/11/05 13:13:41;;;;;;;15.10;11.68;;;;;;;;;;1725433;80;21068;-49
2022/11/05 13:16:27;;;;;;;23.32;17.32;;;;;;;;;;1727738;80;21060;-49
2022/11/05 13:19:07;;;;;;;17.77;12.75;;;;;;;;;;1648678;83;21064;-50
2022/11/05 13:21:35;;;;;;;17.82;12.37;;;;;;;;;;1733410;80;21041;-50
2022/11/05 13:24:14;;;;;;;17.02;12.98;;;;;;;;;;1722410;80;21860;-49
2022/11/05 13:27:01;;;;;;;17.40;11.88;;;;;;;;;;1715856;82;21093;-51
2022/11/05 13:29:48;;;;;;;16.97;13.30;;;;;;;;;;1728200;80;21029;-49
2022/11/05 13:32:30;;;;;;;16.23;11.43;;;;;;;;;;1725492;80;21190;-49
2022/11/05 13:35:02;;;;;;;19.65;12.90;;;;;;;;;;1726287;80;21093;-49
2022/11/05 13:40:32;;;;;;;16.97;12.13;;;;;;;;;;1727527;80;21037;-48
2022/11/05 13:43:07;;;;;;;16.75;11.40;;;;;;;;;;1723352;80;21179;-49
2022/11/05 13:45:55;;;;;;;15.00;10.82;;;;;;;;;;1728629;80;21045;-48
2022/11/05 13:48:43;;;;;;;17.95;11.80;;;;;;;;;;1731314;80;21065;-49
2022/11/05 13:51:31;;;;;;;14.53;11.18;;;;;;;;;;1715644;80;22471;-49
2022/11/05 13:54:16;;;;;;;105.27;68.78;;;;;;;;;;1727699;80;21101;-49
2022/11/05 13:56:59;;;;;;;;;;;;;;;;;;1728322;80;21075;-50
2022/11/05 13:59:51;;;;;;;24.32;16.00;;;;;;;;;;1725194;80;20176;-48
2022/11/05 14:02:22;;;;;;;17.98;12.47;;;;;;;;;;1725952;80;21053;-49
2022/11/05 14:04:57;;;;;;;18.00;12.58;;;;;;;;;;1724922;80;21892;-47
2022/11/05 14:07:26;;;;;;;18.17;11.90;;;;;;;;;;1731341;80;21065;-48
2022/11/05 14:09:56;;;;;;;15.48;9.73;;;;;;;;;;1723787;80;21153;-47
2022/11/05 14:12:26;;;;;;;19.07;11.85;;;;;;;;;;1726022;80;21018;-48
2022/11/05 14:14:55;;;;;;;16.15;11.25;;;;;;;;;;1729678;80;21507;-48
2022/11/05 14:17:33;;;;;;;18.30;12.30;;;;;;;;;;1722062;80;21818;-48
2022/11/05 14:20:06;;;;;;;18.25;12.28;;;;;;;;;;1726852;80;21527;-47
2022/11/05 14:22:38;;;;;;;16.10;11.70;;;;;;;;;;1727004;80;21162;-48
2022/11/05 14:27:16;;;;;;;18.27;11.77;;;;;;;;;;1794032;77;23335;-47
2022/11/05 14:29:45;;;;;;;16.73;11.78;;;;;;;;;;1797368;77;21495;-48
2022/11/05 14:32:20;;;;;;;16.52;12.40;;;;;;;;;;1798699;78;21785;-50
2022/11/05 14:35:05;;;;;;;27.80;22.20;;;;;;;;;;1794138;78;21058;-47
2022/11/05 14:37:40;;;;;;;15.50;12.10;;;;;;;;;;1770071;78;21074;-47
2022/11/05 14:40:25;;;;;;;;;;;;;;;;;;1772353;77;21221;-47
2022/11/05 14:42:53;;;;;;;17.30;11.13;;;;;;;;;;1799294;77;20169;-47
2022/11/05 14:45:33;;;;;;;14.68;11.03;;;;;;;;;;1802752;78;20978;-48
2022/11/05 14:48:04;;;;;;;17.62;13.05;;;;;;;;;;1803055;77;21001;-47
2022/11/05 14:50:39;;;;;;;14.10;10.90;;;;;;;;;;1807755;77;21027;-47
2022/11/05 14:53:28;;;;;;;19.13;12.20;;;;;;;;;;1805842;77;21039;-48
2022/11/05 14:56:01;;;;;;;13.98;11.43;;;;;;;;;;1778661;78;22056;-48
2022/11/05 14:58:30;;;;;;;19.48;11.90;;;;;;;;;;1734132;80;21894;-48
2022/11/05 15:00:58;;;;;;;18.67;13.05;;;;;;;;;;1742707;80;21061;-49
2022/11/05 15:03:43;;;;;;;16.80;12.43;;;;;;;;;;1741418;80;21110;-49
2022/11/05 15:06:22;;;;;;;15.78;10.18;;;;;;;;;;1717935;81;21108;-48
2022/11/05 15:08:52;;;;;;;18.15;14.23;;;;;;;;;;1712551;81;21052;-48
2022/11/05 15:11:34;;;;;;;19.15;13.68;;;;;;;;;;1726543;81;22678;-48
2022/11/05 15:14:21;;;;;;;20.10;13.68;;;;;;;;;;1711048;81;21507;-48
2022/11/05 15:16:52;;;;;;;18.48;13.15;;;;;;;;;;1710033;81;21065;-48
2022/11/05 15:19:28;;;;;;;19.37;12.47;;;;;;;;;;1710443;81;21056;-50
2022/11/05 15:21:57;;;;;;;15.75;10.78;;;;;;;;;;1729460;81;21049;-49
2022/11/05 15:24:24;;;;;;;16.20;11.60;;;;;;;;;;1735020;80;21866;-48
2022/11/05 15:26:54;;;;;;;17.98;12.18;;;;;;;;;;1735404;80;21536;-49
2022/11/05 15:29:23;;;;;;;17.27;13.22;;;;;;;;;;1704793;82;21065;-48
2022/11/05 15:31:52;;;;;;;18.27;12.43;;;;;;;;;;1737847;80;21597;-49
2022/11/05 15:34:23;;;;;;;17.23;11.30;;;;;;;;;;1740323;80;21104;-49
2022/11/05 15:37:10;;;;;;;19.30;13.18;;;;;;;;;;1741167;80;22470;-49
2022/11/05 15:39:44;;;;;;;16.20;11.43;;;;;;;;;;1707017;82;21686;-49
2022/11/05 15:42:21;;;;;;;25.27;15.93;;;;;;;;;;1734921;80;21038;-49
2022/11/05 15:44:49;;;;;;;27.75;17.98;;;;;;;;;;1734402;80;21084;-48
2022/11/05 15:47:29;;;;;;;23.92;15.70;;;;;;;;;;1735231;80;21073;-48